Time;durP1;ratioP1;P1;durP2;ratioP2;P2;SDS_P1;SDS_P2;PMS_P1;PMS_P2;Temp;Humidity;BMP_temperature;BMP_pressure;BME280_temperature;BME280_humidity;BME280_pressure;Samples;Min_cycle;Max_cycle;Signal;HPM_P1;HPM_P2
2023/04/13 00:01:44;;;;;;;;;;;;;;;9.02;100.00;98830.34;5072072;28;866;-75
2023/04/13 00:04:12;;;;;;;;;;;;;;;9.13;100.00;98842.00;5071351;28;790;-74
2023/04/13 00:06:41;;;;;;;;;;;;;;;9.15;100.00;98843.16;5071995;28;806;-76
2023/04/13 00:09:08;;;;;;;;;;;;;;;9.26;100.00;98847.72;5071098;28;1359;-74
2023/04/13 00:11:34;;;;;;;;;;;;;;;9.22;100.00;98850.53;5070947;28;1400;-74
2023/04/13 00:14:01;;;;;;;;;;;;;;;9.02;100.00;98852.41;5071815;28;1968;-74
2023/04/13 00:16:30;;;;;;;;;;;;;;;8.78;100.00;98846.81;5071906;28;957;-74
2023/04/13 00:18:56;;;;;;;;;;;;;;;8.53;100.00;98847.09;5070688;28;1187;-73
2023/04/13 00:21:24;;;;;;;;;;;;;;;8.46;100.00;98844.44;5072369;28;857;-73
2023/04/13 00:23:52;;;;;;;;;;;;;;;8.42;100.00;98846.47;5072041;28;1056;-73
2023/04/13 00:26:20;;;;;;;;;;;;;;;8.38;100.00;98849.22;5072068;28;913;-73
2023/04/13 00:28:47;;;;;;;;;;;;;;;8.45;100.00;98851.94;5071709;28;912;-73
2023/04/13 00:31:14;;;;;;;;;;;;;;;8.47;100.00;98849.56;5070462;28;1021;-74
2023/04/13 00:33:41;;;;;;;;;;;;;;;8.43;100.00;98853.53;5070386;28;1289;-73
2023/04/13 00:36:07;;;;;;;;;;;;;;;8.23;100.00;98861.59;5071698;28;1939;-73
2023/04/13 00:38:34;;;;;;;;;;;;;;;7.95;100.00;98855.19;5071756;28;878;-73
2023/04/13 00:41:01;;;;;;;;;;;;;;;7.63;100.00;98825.22;5071789;28;802;-71
2023/04/13 00:43:27;;;;;;;;;;;;;;;7.80;100.00;98864.75;5071876;28;810;-73
2023/04/13 00:45:54;;;;;;;;;;;;;;;7.54;100.00;98864.94;5071771;28;875;-73
2023/04/13 00:48:22;;;;;;;;;;;;;;;7.28;100.00;98871.03;5072139;28;861;-73
2023/04/13 00:50:49;;;;;;;;;;;;;;;7.12;100.00;98872.28;5071796;28;877;-72
2023/04/13 00:53:17;;;;;;;;;;;;;;;6.88;100.00;98878.72;5070415;28;1379;-72
2023/04/13 00:55:43;;;;;;;;;;;;;;;6.67;100.00;98879.59;5069766;28;1902;-73
2023/04/13 00:58:12;;;;;;;;;;;;;;;6.49;100.00;98880.44;5071688;28;912;-73
2023/04/13 01:00:41;;;;;;;;;;;;;;;6.33;100.00;98888.31;5071829;28;826;-73
2023/04/13 01:03:08;;;;;;;;;;;;;;;6.42;100.00;98896.16;5070178;28;1070;-74
2023/04/13 01:05:58;;;;;;;;;;;;;;;6.37;100.00;98889.09;5070198;28;1203;-74
2023/04/13 01:08:44;;;;;;;;;;;;;;;6.14;100.00;98895.03;5042868;28;1364;-73
2023/04/13 01:11:34;;;;;;;;;;;;;;;5.91;100.00;98895.41;5071576;28;893;-74
2023/04/13 01:14:05;;;;;;;;;;;;;;;5.73;100.00;98904.44;5071193;28;2040;-74
2023/04/13 01:16:52;;;;;;;;;;;;;;;5.64;100.00;98900.53;5072706;28;1257;-74
2023/04/13 01:19:26;;;;;;;;;;;;;;;5.50;100.00;98907.56;5075182;28;1332;-73
2023/04/13 01:21:53;;;;;;;;;;;;;;;5.47;100.00;98907.56;5075274;28;790;-74
2023/04/13 01:24:32;;;;;;;;;;;;;;;5.42;100.00;98906.00;5075191;28;802;-74
2023/04/13 01:27:24;;;;;;;;;;;;;;;5.46;100.00;98915.00;5075097;28;856;-74
2023/04/13 01:29:51;;;;;;;;;;;;;;;5.56;100.00;98912.66;5072579;28;1100;-74
2023/04/13 01:32:17;;;;;;;;;;;;;;;5.65;100.00;98913.03;5075064;28;861;-75
2023/04/13 01:34:44;;;;;;;;;;;;;;;5.51;100.00;98902.88;5074901;28;1975;-73
2023/04/13 01:37:11;;;;;;;;;;;;;;;5.41;100.00;98904.41;5073755;28;948;-74
2023/04/13 01:39:38;;;;;;;;;;;;;;;5.39;100.00;98908.72;5074770;28;853;-74
2023/04/13 01:42:05;;;;;;;;;;;;;;;5.44;100.00;98906.38;5073545;28;1198;-74
2023/04/13 01:44:33;;;;;;;;;;;;;;;5.51;100.00;98911.09;5074685;28;881;-74
2023/04/13 01:47:12;;;;;;;;;;;;;;;5.55;100.00;98909.13;5074873;28;798;-74
2023/04/13 01:49:40;;;;;;;;;;;;;;;5.68;100.00;98913.06;5075120;28;881;-74
2023/04/13 01:52:08;;;;;;;;;;;;;;;5.70;100.00;98913.44;5074990;28;892;-73
2023/04/13 01:54:36;;;;;;;;;;;;;;;5.68;100.00;98915.78;5073043;28;1965;-74
2023/04/13 01:57:03;;;;;;;;;;;;;;;5.65;100.00;98921.28;5073314;28;1312;-73
2023/04/13 01:59:30;;;;;;;;;;;;;;;5.57;100.00;98927.91;5073387;28;1420;-74
2023/04/13 02:01:58;;;;;;;;;;;;;;;5.37;100.00;98933.75;5074308;28;848;-74
2023/04/13 02:04:24;;;;;;;;;;;;;;;5.13;100.00;98939.97;5074448;28;881;-74
2023/04/13 02:06:52;;;;;;;;;;;;;;;4.82;100.00;98936.72;5074248;28;810;-74
2023/04/13 02:09:18;;;;;;;;;;;;;;;4.64;100.00;98931.94;5074450;28;861;-73
2023/04/13 02:11:44;;;;;;;;;;;;;;;4.50;100.00;98929.94;5073099;28;1278;-74
2023/04/13 02:14:11;;;;;;;;;;;;;;;4.50;100.00;98932.66;5074104;28;1961;-74
2023/04/13 02:16:38;;;;;;;;;;;;;;;4.62;100.00;98936.25;5074626;28;813;-75
2023/04/13 02:19:04;;;;;;;;;;;;;;;4.54;100.00;98943.63;5072915;28;897;-75
2023/04/13 02:21:31;;;;;;;;;;;;;;;4.48;100.00;98945.13;5074318;28;826;-74
2023/04/13 02:23:58;;;;;;;;;;;;;;;4.56;100.00;98949.50;5073933;28;865;-75
2023/04/13 02:26:25;;;;;;;;;;;;;;;4.59;100.00;98946.00;5072573;28;1424;-74
2023/04/13 02:28:51;;;;;;;;;;;;;;;4.72;100.00;98951.16;5073355;28;790;-74
2023/04/13 02:31:18;;;;;;;;;;;;;;;4.88;100.00;98960.59;5072657;28;1081;-75
2023/04/13 02:33:45;;;;;;;;;;;;;;;5.23;100.00;98964.66;5073952;28;869;-75
2023/04/13 02:36:12;;;;;;;;;;;;;;;5.26;100.00;98968.56;5074020;28;1898;-74
2023/04/13 02:38:38;;;;;;;;;;;;;;;5.21;100.00;98971.69;5072543;28;1428;-75
2023/04/13 02:41:05;;;;;;;;;;;;;;;5.17;100.00;98965.44;5073950;28;905;-73
2023/04/13 02:43:33;;;;;;;;;;;;;;;5.15;100.00;98974.03;5073774;28;771;-74
2023/04/13 02:45:59;;;;;;;;;;;;;;;5.27;100.00;98983.84;5072231;28;1273;-73
2023/04/13 02:48:27;;;;;;;;;;;;;;;5.35;100.00;98974.47;5073996;28;802;-73
2023/04/13 02:50:53;;;;;;;;;;;;;;;5.33;100.00;98982.28;5073473;28;801;-73
2023/04/13 02:53:20;;;;;;;;;;;;;;;5.29;100.00;98986.97;5073509;28;834;-73
2023/04/13 02:55:49;;;;;;;;;;;;;;;5.15;100.00;98995.16;5073360;28;1893;-73
2023/04/13 02:58:15;;;;;;;;;;;;;;;4.96;100.00;98991.56;5073584;28;806;-74
2023/04/13 03:00:41;;;;;;;;;;;;;;;4.77;100.00;98997.31;5073546;28;794;-74
2023/04/13 03:03:08;;;;;;;;;;;;;;;4.60;100.00;99007.00;5073527;28;876;-74
2023/04/13 03:05:34;;;;;;;;;;;;;;;4.54;100.00;99003.03;5073083;28;1303;-74
2023/04/13 03:08:01;;;;;;;;;;;;;;;4.43;100.00;99011.19;5073409;28;810;-74
2023/04/13 03:10:30;;;;;;;;;;;;;;;4.40;100.00;99015.47;5073462;28;837;-75
2023/04/13 03:12:56;;;;;;;;;;;;;;;4.42;100.00;99004.94;5073286;28;873;-74
2023/04/13 03:15:23;;;;;;;;;;;;;;;4.47;100.00;99009.25;5073143;28;1977;-73
2023/04/13 03:17:50;;;;;;;;;;;;;;;4.50;100.00;99011.22;5073271;28;826;-74
2023/04/13 03:20:21;;;;;;;;;;;;;;;4.60;100.00;99013.25;5073137;28;904;-74
2023/04/13 03:22:47;;;;;;;;;;;;;;;4.79;100.00;99016.88;5072921;28;826;-74
2023/04/13 03:25:14;;;;;;;;;;;;;;;4.91;100.00;99022.06;5073015;28;873;-74
2023/04/13 03:27:41;;;;;;;;;;;;;;;4.94;100.00;99023.22;5072795;28;802;-73
2023/04/13 03:30:08;;;;;;;;;;;;;;;4.90;100.00;99017.72;5072870;28;786;-74
2023/04/13 03:32:34;;;;;;;;;;;;;;;4.78;100.00;99020.78;5072620;28;889;-74
2023/04/13 03:35:01;;;;;;;;;;;;;;;4.75;100.00;99029.78;5072783;28;1945;-74
2023/04/13 03:37:31;;;;;;;;;;;;;;;4.68;100.00;99039.50;5072615;28;810;-74
2023/04/13 03:40:01;;;;;;;;;;;;;;;4.52;100.00;99043.69;5072464;28;897;-73
2023/04/13 03:42:28;;;;;;;;;;;;;;;4.26;100.00;99048.19;5072423;28;837;-73
2023/04/13 03:44:54;;;;;;;;;;;;;;;4.13;100.00;99052.38;5072562;28;850;-74
2023/04/13 03:47:22;;;;;;;;;;;;;;;4.02;100.00;99047.59;5072394;28;893;-74
2023/04/13 03:49:48;;;;;;;;;;;;;;;4.06;100.00;99053.09;5072509;28;865;-73
2023/04/13 03:52:15;;;;;;;;;;;;;;;4.21;100.00;99049.31;5072416;28;870;-74
2023/04/13 03:54:42;;;;;;;;;;;;;;;4.28;100.00;99043.91;5072070;28;1886;-74
2023/04/13 03:57:08;;;;;;;;;;;;;;;4.39;100.00;99059.63;5071605;28;1452;-74
2023/04/13 03:59:34;;;;;;;;;;;;;;;4.29;100.00;99066.59;5072116;28;802;-73
2023/04/13 04:02:03;;;;;;;;;;;;;;;4.09;100.00;99063.28;5072298;28;806;-74
2023/04/13 04:04:30;;;;;;;;;;;;;;;3.92;100.00;99075.59;5072167;28;885;-74
2023/04/13 04:06:56;;;;;;;;;;;;;;;3.84;100.00;99066.56;5072166;28;849;-74
2023/04/13 04:09:23;;;;;;;;;;;;;;;3.80;100.00;99070.44;5071965;28;842;-74
2023/04/13 04:11:50;;;;;;;;;;;;;;;3.83;100.00;99069.66;5070768;28;1190;-74
2023/04/13 04:14:17;;;;;;;;;;;;;;;3.99;100.00;99067.50;5072013;28;1963;-74
2023/04/13 04:16:43;;;;;;;;;;;;;;;4.17;100.00;99073.13;5071962;28;823;-74
2023/04/13 04:19:10;;;;;;;;;;;;;;;4.24;100.00;99084.13;5071982;28;874;-75
2023/04/13 04:21:37;;;;;;;;;;;;;;;4.29;100.00;99094.72;5070858;28;1135;-75
2023/04/13 04:24:07;;;;;;;;;;;;;;;4.35;100.00;99091.63;5071918;28;842;-74
2023/04/13 04:26:36;;;;;;;;;;;;;;;4.38;100.00;99099.09;5072004;28;904;-75
2023/04/13 04:29:06;;;;;;;;;;;;;;;4.48;100.00;99093.72;5070447;28;1510;-75
2023/04/13 04:31:34;;;;;;;;;;;;;;;4.81;100.00;99089.25;5070570;28;1119;-74
2023/04/13 04:34:01;;;;;;;;;;;;;;;5.42;100.00;99097.84;5071511;28;1882;-74
2023/04/13 04:36:27;;;;;;;;;;;;;;;6.01;100.00;99099.63;5070788;28;1064;-74
2023/04/13 04:38:56;;;;;;;;;;;;;;;6.35;100.00;99100.06;5071694;28;814;-74
2023/04/13 04:41:24;;;;;;;;;;;;;;;6.44;100.00;99105.94;5071754;28;942;-74
2023/04/13 04:43:50;;;;;;;;;;;;;;;6.51;100.00;99107.91;5071926;28;806;-74
2023/04/13 04:46:17;;;;;;;;;;;;;;;6.69;100.00;99113.41;5071567;28;877;-74
2023/04/13 04:48:46;;;;;;;;;;;;;;;6.92;100.00;99115.75;5070482;28;1202;-74
2023/04/13 04:51:13;;;;;;;;;;;;;;;7.21;100.00;99115.69;5069954;28;869;-74
2023/04/13 04:53:39;;;;;;;;;;;;;;;7.67;100.00;99120.25;5070391;28;1267;-73
2023/04/13 04:56:06;;;;;;;;;;;;;;;8.03;100.00;99112.59;5071280;28;1890;-73
2023/04/13 04:58:32;;;;;;;;;;;;;;;8.26;100.00;99106.56;5071655;28;806;-74
2023/04/13 05:01:00;;;;;;;;;;;;;;;8.66;100.00;99103.53;5070409;28;1038;-74
2023/04/13 05:03:27;;;;;;;;;;;;;;;9.04;100.00;99107.13;5071592;28;830;-74
2023/04/13 05:05:53;;;;;;;;;;;;;;;9.08;100.00;99096.84;5071432;28;798;-73
2023/04/13 05:08:19;;;;;;;;;;;;;;;8.89;100.00;99100.97;5071393;28;794;-73
2023/04/13 05:10:46;;;;;;;;;;;;;;;8.85;100.00;99094.72;5071316;28;838;-73
2023/04/13 05:13:13;;;;;;;;;;;;;;;8.92;100.00;99094.66;5070685;28;914;-73
2023/04/13 05:15:39;;;;;;;;;;;;;;;9.07;100.00;99092.53;5071366;28;1922;-73
2023/04/13 05:18:06;;;;;;;;;;;;;;;9.22;100.00;99090.44;5071652;28;758;-73
2023/04/13 05:20:33;;;;;;;;;;;;;;;9.34;100.00;99091.84;5071447;28;898;-73
2023/04/13 05:23:00;;;;;;;;;;;;;;;9.37;100.00;99085.53;5071342;28;846;-73
2023/04/13 05:25:26;;;;;;;;;;;;;;;9.46;100.00;99087.78;5071241;28;885;-73
2023/04/13 05:27:53;;;;;;;;;;;;;;;9.58;100.00;99093.56;5071170;28;1016;-74
2023/04/13 05:30:20;;;;;;;;;;;;;;;9.76;100.00;99093.31;5071220;28;818;-74
2023/04/13 05:32:47;;;;;;;;;;;;;;;9.98;100.00;99090.25;5071093;28;878;-73
2023/04/13 05:35:13;;;;;;;;;;;;;;;10.18;100.00;99095.91;5069920;28;1933;-73
2023/04/13 05:37:40;;;;;;;;;;;;;;;10.24;100.00;99096.97;5071059;28;865;-73
2023/04/13 05:40:10;;;;;;;;;;;;;;;10.34;100.00;99093.31;5071106;28;869;-73
2023/04/13 05:42:37;;;;;;;;;;;;;;;10.54;100.00;99098.13;5070965;28;922;-73
2023/04/13 05:45:08;;;;;;;;;;;;;;;10.74;100.00;99099.00;5071058;28;803;-73
2023/04/13 05:47:37;;;;;;;;;;;;;;;10.98;100.00;99099.75;5071433;28;858;-73
2023/04/13 05:50:03;;;;;;;;;;;;;;;11.40;100.00;99102.16;5071242;28;1028;-74
2023/04/13 05:52:30;;;;;;;;;;;;;;;11.86;100.00;99094.88;5071149;28;901;-73
2023/04/13 05:54:56;;;;;;;;;;;;;;;12.18;100.00;99097.00;5070736;28;1890;-73
2023/04/13 05:57:23;;;;;;;;;;;;;;;12.33;100.00;99104.97;5069893;28;1338;-73
2023/04/13 05:59:50;;;;;;;;;;;;;;;12.71;100.00;99105.25;5070917;28;877;-73
2023/04/13 06:02:17;;;;;;;;;;;;;;;13.78;100.00;99111.94;5070558;28;1297;-73
2023/04/13 06:04:44;;;;;;;;;;;;;;;14.13;100.00;99112.13;5074371;28;842;-74
2023/04/13 06:07:15;;;;;;;;;;;;;;;13.12;100.00;99119.66;5073230;28;866;-73
2023/04/13 06:09:41;;;;;;;;;;;;;;;12.90;100.00;99120.22;5074583;28;834;-73
2023/04/13 06:12:08;;;;;;;;;;;;;;;12.73;100.00;99119.44;5074245;28;794;-73
2023/04/13 06:14:35;;;;;;;;;;;;;;;12.63;100.00;99129.59;5072913;28;1913;-73
2023/04/13 06:17:02;;;;;;;;;;;;;;;12.80;100.00;99124.84;5074224;28;876;-73
2023/04/13 06:19:28;;;;;;;;;;;;;;;13.25;100.00;99135.19;5074075;28;822;-74
2023/04/13 06:21:55;;;;;;;;;;;;;;;13.92;100.00;99133.75;5073430;28;929;-74
2023/04/13 06:24:21;;;;;;;;;;;;;;;14.96;100.00;99121.44;5074268;28;1290;-73
2023/04/13 06:26:48;;;;;;;;;;;;;;;15.90;100.00;99134.41;5074340;28;786;-74
2023/04/13 06:29:14;;;;;;;;;;;;;;;17.10;100.00;99131.31;5074157;28;838;-74
2023/04/13 06:31:49;;;;;;;;;;;;;;;18.05;100.00;99133.16;5072872;28;807;-73
2023/04/13 06:34:16;;;;;;;;;;;;;;;18.88;100.00;99135.63;5073737;28;1874;-73
2023/04/13 06:36:42;;;;;;;;;;;;;;;19.59;100.00;99136.03;5073683;28;829;-73
2023/04/13 06:39:09;;;;;;;;;;;;;;;20.00;100.00;99139.09;5073784;28;896;-73
2023/04/13 06:41:36;;;;;;;;;;;;;;;20.04;100.00;99134.06;5073606;28;860;-73
2023/04/13 06:44:03;;;;;;;;;;;;;;;20.34;100.00;99132.00;5073824;28;888;-73
2023/04/13 06:46:29;;;;;;;;;;;;;;;20.80;100.00;99141.88;5072270;28;1164;-73
2023/04/13 06:48:56;;;;;;;;;;;;;;;21.29;100.00;99140.22;5073558;28;857;-73
2023/04/13 06:51:23;;;;;;;;;;;;;;;21.20;100.00;99140.38;5073758;28;838;-73
2023/04/13 06:53:54;;;;;;;;;;;;;;;20.75;98.25;99145.38;5073534;28;877;-73
2023/04/13 06:56:21;;;;;;;;;;;;;;;20.33;100.00;99147.31;5071715;28;1941;-73
2023/04/13 06:58:47;;;;;;;;;;;;;;;20.81;100.00;99149.06;5072309;28;957;-72
2023/04/13 07:01:15;;;;;;;;;;;;;;;21.15;100.00;99144.66;5073284;28;802;-72
2023/04/13 07:03:42;;;;;;;;;;;;;;;21.48;100.00;99139.97;5073263;28;818;-72
2023/04/13 07:06:09;;;;;;;;;;;;;;;22.03;100.00;99144.63;5073215;28;873;-72
2023/04/13 07:08:36;;;;;;;;;;;;;;;21.68;100.00;99147.59;5073066;28;881;-72
2023/04/13 07:11:03;;;;;;;;;;;;;;;21.44;99.05;99164.69;5073087;28;802;-71
2023/04/13 07:13:29;;;;;;;;;;;;;;;21.56;99.22;99150.28;5072615;28;832;-71
2023/04/13 07:15:56;;;;;;;;;;;;;;;21.72;100.00;99148.13;5073090;28;1910;-71
2023/04/13 07:18:23;;;;;;;;;;;;;;;21.78;100.00;99138.47;5072851;28;858;-70
2023/04/13 07:20:49;;;;;;;;;;;;;;;21.50;100.00;99148.69;5072948;28;802;-71
2023/04/13 07:23:16;;;;;;;;;;;;;;;20.87;100.00;99149.91;5072783;28;841;-72
2023/04/13 07:25:43;;;;;;;;;;;;;;;19.85;100.00;99158.72;5072807;28;814;-72
2023/04/13 07:28:10;;;;;;;;;;;;;;;19.21;100.00;99154.38;5072702;28;806;-71
2023/04/13 07:30:41;;;;;;;;;;;;;;;19.27;98.27;99157.31;5072640;28;862;-71
2023/04/13 07:33:07;;;;;;;;;;;;;;;19.90;98.42;99149.59;5072629;28;905;-71
2023/04/13 07:35:35;;;;;;;;;;;;;;;20.33;86.64;99146.50;5072576;28;1886;-71
2023/04/13 07:38:01;;;;;;;;;;;;;;;20.47;92.28;99145.72;5072536;28;835;-71
2023/04/13 07:40:28;;;;;;;;;;;;;;;21.07;94.81;99151.19;5072537;28;861;-71
2023/04/13 07:42:55;;;;;;;;;;;;;;;21.76;99.74;99146.69;5072401;28;861;-71
2023/04/13 07:45:21;;;;;;;;;;;;;;;22.27;97.47;99138.69;5072424;28;803;-71
2023/04/13 07:47:48;;;;;;;;;;;;;;;22.21;87.02;99146.28;5072265;28;855;-72
2023/04/13 07:50:16;;;;;;;;;;;;;;;22.17;87.84;99145.78;5072328;28;798;-70
2023/04/13 07:52:43;;;;;;;;;;;;;;;21.95;88.35;99144.28;5072234;28;893;-72
2023/04/13 07:55:10;;;;;;;;;;;;;;;21.69;81.92;99149.13;5071942;28;1885;-71
2023/04/13 07:57:36;;;;;;;;;;;;;;;21.70;90.44;99148.66;5070890;28;1178;-71
2023/04/13 08:00:04;;;;;;;;;;;;;;;21.88;81.91;99152.41;5072140;28;862;-70
2023/04/13 08:02:31;;;;;;;;;;;;;;;21.91;89.25;99149.38;5072125;28;888;-69
2023/04/13 08:04:58;;;;;;;;;;;;;;;22.04;83.56;99151.81;5071971;28;837;-70
2023/04/13 08:07:25;;;;;;;;;;;;;;;21.81;73.23;99148.75;5072059;28;857;-71
2023/04/13 08:09:52;;;;;;;;;;;;;;;21.27;68.52;99151.19;5071942;28;834;-72
2023/04/13 08:12:18;;;;;;;;;;;;;;;21.02;61.06;99152.66;5071998;28;853;-71
2023/04/13 08:14:45;;;;;;;;;;;;;;;20.82;65.94;99161.81;5071784;28;1910;-71
2023/04/13 08:17:12;;;;;;;;;;;;;;;20.73;60.90;99147.91;5071844;28;858;-71
2023/04/13 08:19:39;;;;;;;;;;;;;;;21.21;77.49;99150.38;5071855;28;877;-71
2023/04/13 08:22:05;;;;;;;;;;;;;;;21.37;66.86;99146.97;5071772;28;806;-71
2023/04/13 08:24:32;;;;;;;;;;;;;;;21.44;61.81;99150.66;5071502;28;850;-71
2023/04/13 08:26:59;;;;;;;;;;;;;;;21.11;74.84;99146.91;5071339;28;868;-71
2023/04/13 08:29:26;;;;;;;;;;;;;;;21.45;81.67;99158.59;5071782;28;861;-72
2023/04/13 08:31:53;;;;;;;;;;;;;;;21.41;64.04;99152.38;5071704;28;854;-71
2023/04/13 08:34:20;;;;;;;;;;;;;;;20.86;51.79;99147.59;5071785;28;1877;-70
2023/04/13 08:36:46;;;;;;;;;;;;;;;20.24;60.97;99147.38;5071866;28;817;-70
2023/04/13 08:39:13;;;;;;;;;;;;;;;20.13;52.78;99150.00;5071589;28;854;-71
2023/04/13 08:41:43;;;;;;;;;;;;;;;20.14;63.14;99143.94;5071640;28;771;-71
2023/04/13 08:44:11;;;;;;;;;;;;;;;20.44;54.67;99141.09;5071552;28;900;-71
2023/04/13 08:46:37;;;;;;;;;;;;;;;20.16;55.85;99144.22;5071439;28;883;-70
2023/04/13 08:49:06;;;;;;;;;;;;;;;19.89;51.58;99133.28;5070163;28;1269;-70
2023/04/13 08:51:33;;;;;;;;;;;;;;;20.00;60.27;99136.28;5071832;28;889;-70
2023/04/13 08:53:58;;;;;;;;;;;;;;;20.31;62.08;99137.78;5071322;28;905;-70
2023/04/13 08:56:26;;;;;;;;;;;;;;;20.25;55.50;99134.91;5071218;28;1951;-70
2023/04/13 08:58:57;;;;;;;;;;;;;;;20.05;52.83;99132.03;5071374;28;838;-70
2023/04/13 09:01:25;;;;;;;;;;;;;;;19.92;53.58;99124.66;5070154;28;1195;-70
2023/04/13 09:03:59;;;;;;;;;;;;;;;19.72;54.11;99128.16;5071275;28;877;-70
2023/04/13 09:06:32;;;;;;;;;;;;;;;19.74;54.22;99122.06;5071429;28;865;-71
2023/04/13 09:08:59;;;;;;;;;;;;;;;19.88;56.94;99114.91;5071628;28;909;-70
2023/04/13 09:11:26;;;;;;;;;;;;;;;19.87;53.58;99125.34;5071301;28;846;-70
2023/04/13 09:13:53;;;;;;;;;;;;;;;19.53;49.90;99119.09;5071290;28;806;-71
2023/04/13 09:19:28;;;;;;;;;;;;;;;18.85;53.04;99108.56;5071315;28;590;-70
2023/04/13 09:21:55;;;;;;;;;;;;;;;18.90;52.52;99110.69;5071159;28;833;-71
2023/04/13 09:24:21;;;;;;;;;;;;;;;18.77;51.47;99112.94;5071217;28;842;-70
2023/04/13 09:26:48;;;;;;;;;;;;;;;18.74;59.41;99108.28;5071196;28;924;-71
2023/04/13 09:29:15;;;;;;;;;;;;;;;18.79;54.42;99104.88;5071221;28;861;-71
2023/04/13 09:31:42;;;;;;;;;;;;;;;18.73;57.39;99113.13;5069725;28;1453;-70
2023/04/13 09:34:08;;;;;;;;;;;;;;;18.76;66.04;99114.19;5071338;28;846;-71
2023/04/13 09:36:35;;;;;;;;;;;;;;;18.70;65.99;99110.50;5072272;28;1894;-71
2023/04/13 09:39:03;;;;;;;;;;;;;;;18.70;60.64;99110.50;5074792;28;790;-71
2023/04/13 10:11:05;;;;;;;;;;;;;;;18.93;49.54;99083.78;5208204;22;1656;-72
2023/04/13 10:13:39;;;;;;;;;;;;;;;19.01;51.77;99084.97;5074222;28;813;-70
2023/04/13 10:16:25;;;;;;;;;;;;;;;19.08;50.46;99087.41;5072832;28;1922;-71
2023/04/13 10:19:01;;;;;;;;;;;;;;;19.10;48.95;99084.13;5074095;28;865;-72
2023/04/13 10:21:34;;;;;;;;;;;;;;;19.17;47.93;99075.34;5074238;28;893;-71
2023/04/13 10:24:03;;;;;;;;;;;;;;;18.97;44.12;99082.34;5074392;28;838;-71
2023/04/13 10:26:33;;;;;;;;;;;;;;;18.92;40.71;99087.81;5073957;28;837;-70
2023/04/13 10:29:00;;;;;;;;;;;;;;;18.87;42.29;99077.28;5073987;28;856;-71
2023/04/13 10:31:40;;;;;;;;;;;;;;;19.02;41.46;99083.72;5072997;28;834;-70
2023/04/13 10:34:08;;;;;;;;;;;;;;;19.22;40.67;99083.09;5073878;28;881;-71
2023/04/13 10:36:42;;;;;;;;;;;;;;;19.12;40.72;99084.44;5073794;28;1890;-71
2023/04/13 10:39:09;;;;;;;;;;;;;;;19.22;41.78;99071.09;5073998;28;857;-71
2023/04/13 10:41:45;;;;;;;;;;;;;;;19.15;39.18;99084.22;5073724;28;887;-72
2023/04/13 10:44:42;;;;;;;;;;;;;;;18.82;38.21;99073.13;5073883;28;825;-72
2023/04/13 10:47:10;;;;;;;;;;;;;;;18.83;40.39;99085.88;5073569;28;1159;-72
2023/04/13 10:49:36;;;;;;;;;;;;;;;18.96;39.33;99080.78;5071334;28;1342;-71
2023/04/13 10:52:03;;;;;;;;;;;;;;;18.98;38.25;99074.72;5072228;28;1271;-71
2023/04/13 11:06:42;;;;;;;;;;;;;;;20.05;37.38;99075.91;5073285;28;644;-71
2023/04/13 11:09:10;;;;;;;;;;;;;;;20.18;38.97;99071.56;5073389;28;898;-72
2023/04/13 11:11:38;;;;;;;;;;;;;;;20.31;39.55;99062.03;5072939;28;1436;-71
2023/04/13 11:24:01;;;;;;;;;;;;;;;21.20;36.46;99044.84;5073146;28;648;-72
2023/04/13 11:29:40;;;;;;;;;;;;;;;21.00;36.87;99040.78;5073083;28;696;-76
2023/04/13 11:32:14;;;;;;;;;;;;;;;20.55;36.60;99043.00;5072715;28;850;-71
2023/04/13 11:34:40;;;;;;;;;;;;;;;20.43;36.84;99041.28;5072608;28;1973;-71
2023/04/13 11:37:07;;;;;;;;;;;;;;;21.05;38.27;99032.91;5072687;28;829;-72
2023/04/13 11:39:35;;;;;;;;;;;;;;;21.45;38.05;99032.09;5072287;28;847;-71
2023/04/13 11:42:05;;;;;;;;;;;;;;;21.08;37.85;99041.16;5072879;28;888;-72
2023/04/13 11:44:35;;;;;;;;;;;;;;;21.32;38.92;99038.06;5072445;28;899;-72
2023/04/13 11:47:02;;;;;;;;;;;;;;;21.44;39.72;99047.41;5072373;28;817;-72
2023/04/13 11:49:30;;;;;;;;;;;;;;;21.74;38.18;99036.72;5071100;28;1281;-72
2023/04/13 11:51:58;;;;;;;;;;;;;;;21.79;38.80;99038.03;5070984;28;1226;-71
2023/04/13 11:54:24;;;;;;;;;;;;;;;21.58;38.09;99034.53;5072176;28;1881;-72
2023/04/13 11:56:51;;;;;;;;;;;;;;;21.87;40.09;99027.09;5072216;28;867;-73
2023/04/13 11:59:21;;;;;;;;;;;;;;;22.59;40.14;99017.59;5072143;28;825;-70
2023/04/13 12:01:48;;;;;;;;;;;;;;;22.38;36.48;99031.03;5072093;28;825;-71
2023/04/13 12:04:15;;;;;;;;;;;;;;;21.68;36.60;99030.28;5072169;28;841;-72
2023/04/13 12:06:48;;;;;;;;;;;;;;;22.06;37.86;99031.06;5072075;28;999;-72
2023/04/13 12:09:14;;;;;;;;;;;;;;;22.07;36.84;99027.00;5072536;28;1007;-72
2023/04/13 12:11:58;;;;;;;;;;;;;;;21.15;40.24;99023.06;5071777;28;1303;-72
2023/04/13 12:14:25;;;;;;;;;;;;;;;21.13;41.42;99020.75;5071868;28;1983;-72
2023/04/13 12:16:52;;;;;;;;;;;;;;;22.31;39.73;99023.06;5071898;28;889;-72
2023/04/13 12:19:22;;;;;;;;;;;;;;;22.84;37.51;99025.13;5071818;28;857;-72
2023/04/13 12:21:54;;;;;;;;;;;;;;;23.47;37.29;99014.84;5071809;28;912;-71
2023/04/13 12:24:30;;;;;;;;;;;;;;;23.70;35.72;99014.84;5071947;28;896;-73
2023/04/13 12:27:00;;;;;;;;;;;;;;;23.33;35.55;99007.38;5071795;28;822;-72
2023/04/13 12:29:26;;;;;;;;;;;;;;;22.96;36.96;99009.06;5071724;28;810;-72
2023/04/13 12:31:58;;;;;;;;;;;;;;;23.57;38.65;99015.34;5071747;28;813;-72
2023/04/13 12:34:25;;;;;;;;;;;;;;;23.58;37.53;99006.38;5071651;28;1976;-73
2023/04/13 12:36:51;;;;;;;;;;;;;;;23.41;36.41;99002.78;5071540;28;829;-73
2023/04/13 12:39:21;;;;;;;;;;;;;;;23.48;36.29;98993.03;5071633;28;964;-72
2023/04/13 12:41:48;;;;;;;;;;;;;;;23.92;36.63;98999.97;5071778;28;905;-71
2023/04/13 12:44:14;;;;;;;;;;;;;;;23.67;35.60;98999.72;5072271;28;787;-73
2023/04/13 12:46:41;;;;;;;;;;;;;;;23.75;35.84;98988.69;5071542;28;1032;-72
2023/04/13 12:49:07;;;;;;;;;;;;;;;23.90;35.07;98991.25;5071436;28;861;-72
2023/04/13 12:51:39;;;;;;;;;;;;;;;23.83;34.59;98981.25;5070251;28;1159;-73
2023/04/13 12:54:11;;;;;;;;;;;;;;;23.65;34.43;98988.16;5070228;28;1194;-72
2023/04/13 12:56:39;;;;;;;;;;;;;;;23.99;37.71;98983.28;5071511;28;1964;-73
2023/04/13 12:59:06;;;;;;;;;;;;;;;24.49;35.04;98976.00;5071453;28;865;-74
2023/04/13 13:01:36;;;;;;;;;;;;;;;23.70;32.13;98975.34;5071450;28;868;-73
2023/04/13 13:04:03;;;;;;;;;;;;;;;22.83;32.96;98966.50;5070386;28;1084;-74
2023/04/13 13:06:31;;;;;;;;;;;;;;;22.90;34.07;98968.06;5071244;28;841;-73
2023/04/13 13:08:58;;;;;;;;;;;;;;;23.33;33.16;98976.38;5070120;28;1178;-74
2023/04/13 13:11:25;;;;;;;;;;;;;;;23.77;33.11;98975.63;5071673;28;1066;-73
2023/04/13 13:13:52;;;;;;;;;;;;;;;23.81;32.79;98975.34;5075370;28;814;-73
2023/04/13 13:16:18;;;;;;;;;;;;;;;23.81;32.87;98981.00;5075407;28;2028;-73
2023/04/13 13:18:47;;;;;;;;;;;;;;;23.90;33.47;98977.94;5075226;28;810;-73
2023/04/13 13:21:14;;;;;;;;;;;;;;;24.16;32.58;98962.75;5075241;28;853;-74
2023/04/13 13:23:44;;;;;;;;;;;;;;;24.46;33.61;98968.56;5075208;28;848;-73
2023/04/13 13:26:16;;;;;;;;;;;;;;;24.64;32.38;98955.91;5075081;28;881;-73
2023/04/13 13:28:43;;;;;;;;;;;;;;;24.67;32.29;98956.97;5075510;28;814;-74
2023/04/13 13:31:11;;;;;;;;;;;;;;;24.63;34.23;98952.34;5075155;28;889;-73
2023/04/13 13:45:51;;;;;;;;;;;;;;;22.69;32.69;98937.25;5075039;28;688;-73
2023/04/13 13:48:17;;;;;;;;;;;;;;;22.69;32.65;98945.69;5074782;28;810;-72
2023/04/13 13:50:44;;;;;;;;;;;;;;;22.36;33.63;98957.59;5074951;28;857;-72
2023/04/13 13:53:11;;;;;;;;;;;;;;;21.80;34.89;98943.94;5074551;28;860;-72
2023/04/13 13:55:38;;;;;;;;;;;;;;;21.54;34.61;98936.34;5074529;28;1958;-72
2023/04/13 13:58:04;;;;;;;;;;;;;;;21.21;35.36;98942.44;5074496;28;903;-71
2023/04/13 14:00:30;;;;;;;;;;;;;;;20.73;36.39;98940.13;5074784;28;739;-70
2023/04/13 14:02:57;;;;;;;;;;;;;;;21.66;38.20;98939.22;5074411;28;837;-71
2023/04/13 14:05:23;;;;;;;;;;;;;;;22.63;37.55;98930.81;5074281;28;845;-72
2023/04/13 14:07:50;;;;;;;;;;;;;;;23.07;35.78;98937.13;5074398;28;837;-71
2023/04/13 14:10:17;;;;;;;;;;;;;;;22.42;36.56;98930.22;5074473;28;1202;-71
2023/04/13 14:12:45;;;;;;;;;;;;;;;21.49;36.80;98939.13;5074234;28;814;-71
2023/04/13 14:15:12;;;;;;;;;;;;;;;21.18;36.59;98926.53;5072900;28;1955;-70
2023/04/13 14:17:39;;;;;;;;;;;;;;;21.55;36.40;98926.63;5074159;28;861;-71